sensor_id;sensor_type;location;lat;lon;timestamp;P1;durP1;ratioP1;P2;durP2;ratioP2
78072;SDS011;67281;48.770;11.440;2023-05-10T00:01:32;12.10;;;8.40;;
78072;SDS011;67281;48.770;11.440;2023-05-10T00:03:58;10.80;;;8.90;;
78072;SDS011;67281;48.770;11.440;2023-05-10T00:06:25;8.80;;;7.90;;
78072;SDS011;67281;48.770;11.440;2023-05-10T00:08:52;10.13;;;8.50;;
78072;SDS011;67281;48.770;11.440;2023-05-10T00:11:19;9.70;;;8.50;;
78072;SDS011;67281;48.770;11.440;2023-05-10T00:13:48;9.23;;;8.33;;
78072;SDS011;67281;48.770;11.440;2023-05-10T00:16:15;9.23;;;7.97;;
78072;SDS011;67281;48.770;11.440;2023-05-10T00:18:42;8.00;;;7.20;;
78072;SDS011;67281;48.770;11.440;2023-05-10T00:21:09;7.93;;;6.13;;
78072;SDS011;67281;48.770;11.440;2023-05-10T00:23:36;6.53;;;5.53;;
78072;SDS011;67281;48.770;11.440;2023-05-10T00:26:02;5.30;;;4.70;;
78072;SDS011;67281;48.770;11.440;2023-05-10T00:28:29;7.13;;;4.27;;
78072;SDS011;67281;48.770;11.440;2023-05-10T00:30:56;6.33;;;4.13;;
78072;SDS011;67281;48.770;11.440;2023-05-10T00:33:23;4.40;;;3.53;;
78072;SDS011;67281;48.770;11.440;2023-05-10T00:35:49;3.60;;;3.20;;
78072;SDS011;67281;48.770;11.440;2023-05-10T00:38:16;3.03;;;2.60;;
78072;SDS011;67281;48.770;11.440;2023-05-10T00:40:43;3.13;;;2.83;;
78072;SDS011;67281;48.770;11.440;2023-05-10T00:43:10;3.27;;;2.40;;
78072;SDS011;67281;48.770;11.440;2023-05-10T00:45:37;3.93;;;2.30;;
78072;SDS011;67281;48.770;11.440;2023-05-10T00:48:06;2.20;;;1.67;;
78072;SDS011;67281;48.770;11.440;2023-05-10T00:50:33;2.03;;;1.87;;
78072;SDS011;67281;48.770;11.440;2023-05-10T00:53:00;2.00;;;1.80;;
78072;SDS011;67281;48.770;11.440;2023-05-10T00:55:28;2.13;;;1.90;;
78072;SDS011;67281;48.770;11.440;2023-05-10T00:57:56;2.53;;;2.13;;
78072;SDS011;67281;48.770;11.440;2023-05-10T01:00:23;1.70;;;1.60;;
78072;SDS011;67281;48.770;11.440;2023-05-10T01:02:49;1.97;;;1.77;;
78072;SDS011;67281;48.770;11.440;2023-05-10T01:05:17;2.33;;;1.90;;
78072;SDS011;67281;48.770;11.440;2023-05-10T01:07:44;2.23;;;1.50;;
78072;SDS011;67281;48.770;11.440;2023-05-10T01:10:10;3.63;;;1.80;;
78072;SDS011;67281;48.770;11.440;2023-05-10T01:12:38;3.10;;;1.40;;
78072;SDS011;67281;48.770;11.440;2023-05-10T01:15:07;2.60;;;1.60;;
78072;SDS011;67281;48.770;11.440;2023-05-10T01:17:37;1.60;;;1.40;;
78072;SDS011;67281;48.770;11.440;2023-05-10T01:20:07;2.70;;;1.73;;
78072;SDS011;67281;48.770;11.440;2023-05-10T01:22:50;1.90;;;1.70;;
78072;SDS011;67281;48.770;11.440;2023-05-10T01:28:45;2.00;;;1.80;;
78072;SDS011;67281;48.770;11.440;2023-05-10T01:34:08;2.30;;;1.63;;
78072;SDS011;67281;48.770;11.440;2023-05-10T01:37:01;1.87;;;1.60;;
78072;SDS011;67281;48.770;11.440;2023-05-10T01:39:35;2.03;;;1.60;;
78072;SDS011;67281;48.770;11.440;2023-05-10T01:42:12;1.80;;;1.70;;
78072;SDS011;67281;48.770;11.440;2023-05-10T01:45:06;2.23;;;1.80;;
78072;SDS011;67281;48.770;11.440;2023-05-10T01:48:22;2.97;;;2.00;;
78072;SDS011;67281;48.770;11.440;2023-05-10T01:50:34;2.33;;;1.90;;
78072;SDS011;67281;48.770;11.440;2023-05-10T01:53:05;2.17;;;1.97;;
78072;SDS011;67281;48.770;11.440;2023-05-10T01:55:36;5.67;;;2.30;;
78072;SDS011;67281;48.770;11.440;2023-05-10T01:58:10;1.90;;;1.80;;
78072;SDS011;67281;48.770;11.440;2023-05-10T02:00:42;2.90;;;1.80;;
78072;SDS011;67281;48.770;11.440;2023-05-10T02:03:10;2.40;;;1.80;;
78072;SDS011;67281;48.770;11.440;2023-05-10T02:05:40;1.73;;;1.63;;
78072;SDS011;67281;48.770;11.440;2023-05-10T02:08:10;10.17;;;2.40;;
78072;SDS011;67281;48.770;11.440;2023-05-10T02:10:39;2.43;;;2.23;;
78072;SDS011;67281;48.770;11.440;2023-05-10T02:13:07;1.93;;;1.80;;
78072;SDS011;67281;48.770;11.440;2023-05-10T02:15:35;2.00;;;1.90;;
78072;SDS011;67281;48.770;11.440;2023-05-10T02:18:05;2.27;;;2.07;;
78072;SDS011;67281;48.770;11.440;2023-05-10T02:20:32;3.80;;;2.33;;
78072;SDS011;67281;48.770;11.440;2023-05-10T02:23:01;3.70;;;2.27;;
78072;SDS011;67281;48.770;11.440;2023-05-10T02:25:29;2.17;;;2.03;;
78072;SDS011;67281;48.770;11.440;2023-05-10T02:27:58;2.43;;;2.23;;
78072;SDS011;67281;48.770;11.440;2023-05-10T02:30:27;2.63;;;2.00;;
78072;SDS011;67281;48.770;11.440;2023-05-10T02:32:57;1.90;;;1.80;;
78072;SDS011;67281;48.770;11.440;2023-05-10T02:35:26;2.17;;;1.80;;
78072;SDS011;67281;48.770;11.440;2023-05-10T02:37:54;2.20;;;2.10;;
78072;SDS011;67281;48.770;11.440;2023-05-10T02:40:22;2.53;;;2.27;;
78072;SDS011;67281;48.770;11.440;2023-05-10T02:42:54;4.03;;;2.13;;
78072;SDS011;67281;48.770;11.440;2023-05-10T02:45:23;2.10;;;1.90;;
78072;SDS011;67281;48.770;11.440;2023-05-10T02:47:54;2.87;;;2.17;;
78072;SDS011;67281;48.770;11.440;2023-05-10T02:50:22;2.07;;;1.93;;
78072;SDS011;67281;48.770;11.440;2023-05-10T02:52:51;2.30;;;2.10;;
78072;SDS011;67281;48.770;11.440;2023-05-10T02:55:25;2.93;;;2.20;;
78072;SDS011;67281;48.770;11.440;2023-05-10T02:57:59;2.40;;;2.20;;
78072;SDS011;67281;48.770;11.440;2023-05-10T03:00:27;3.83;;;2.30;;
78072;SDS011;67281;48.770;11.440;2023-05-10T03:02:54;3.50;;;2.40;;
78072;SDS011;67281;48.770;11.440;2023-05-10T03:05:21;3.83;;;2.70;;
78072;SDS011;67281;48.770;11.440;2023-05-10T03:07:48;4.20;;;2.07;;
78072;SDS011;67281;48.770;11.440;2023-05-10T03:10:14;2.63;;;2.43;;
78072;SDS011;67281;48.770;11.440;2023-05-10T03:15:58;2.57;;;2.37;;
78072;SDS011;67281;48.770;11.440;2023-05-10T03:18:50;3.40;;;2.30;;
78072;SDS011;67281;48.770;11.440;2023-05-10T03:21:33;4.23;;;2.70;;
78072;SDS011;67281;48.770;11.440;2023-05-10T03:24:05;2.23;;;2.03;;
78072;SDS011;67281;48.770;11.440;2023-05-10T03:26:34;2.60;;;2.10;;
78072;SDS011;67281;48.770;11.440;2023-05-10T03:29:02;2.43;;;1.93;;
78072;SDS011;67281;48.770;11.440;2023-05-10T03:31:31;2.43;;;2.23;;
78072;SDS011;67281;48.770;11.440;2023-05-10T03:33:58;3.03;;;2.77;;
78072;SDS011;67281;48.770;11.440;2023-05-10T03:36:25;2.33;;;2.03;;
78072;SDS011;67281;48.770;11.440;2023-05-10T03:38:52;2.00;;;1.90;;
78072;SDS011;67281;48.770;11.440;2023-05-10T03:41:19;3.57;;;2.40;;
78072;SDS011;67281;48.770;11.440;2023-05-10T03:43:47;4.80;;;1.80;;
78072;SDS011;67281;48.770;11.440;2023-05-10T03:46:13;2.20;;;2.00;;
78072;SDS011;67281;48.770;11.440;2023-05-10T03:48:40;4.40;;;2.30;;
78072;SDS011;67281;48.770;11.440;2023-05-10T03:51:07;1.97;;;1.87;;
78072;SDS011;67281;48.770;11.440;2023-05-10T03:53:34;5.57;;;1.93;;
78072;SDS011;67281;48.770;11.440;2023-05-10T03:56:00;2.83;;;1.83;;
78072;SDS011;67281;48.770;11.440;2023-05-10T03:58:27;17.93;;;2.43;;
78072;SDS011;67281;48.770;11.440;2023-05-10T04:00:54;3.60;;;2.63;;
78072;SDS011;67281;48.770;11.440;2023-05-10T04:03:21;1.90;;;1.80;;
78072;SDS011;67281;48.770;11.440;2023-05-10T04:05:48;2.07;;;1.90;;
78072;SDS011;67281;48.770;11.440;2023-05-10T04:08:15;2.57;;;1.47;;
78072;SDS011;67281;48.770;11.440;2023-05-10T04:10:42;1.50;;;1.40;;
78072;SDS011;67281;48.770;11.440;2023-05-10T04:13:09;1.60;;;1.50;;
78072;SDS011;67281;48.770;11.440;2023-05-10T04:15:37;1.57;;;1.30;;
78072;SDS011;67281;48.770;11.440;2023-05-10T04:18:07;3.03;;;1.10;;
78072;SDS011;67281;48.770;11.440;2023-05-10T04:20:34;1.23;;;1.10;;
78072;SDS011;67281;48.770;11.440;2023-05-10T04:23:01;1.20;;;1.00;;
78072;SDS011;67281;48.770;11.440;2023-05-10T04:25:27;0.83;;;0.80;;
78072;SDS011;67281;48.770;11.440;2023-05-10T04:27:54;1.00;;;1.00;;
78072;SDS011;67281;48.770;11.440;2023-05-10T04:30:21;1.17;;;0.90;;
78072;SDS011;67281;48.770;11.440;2023-05-10T04:32:48;1.10;;;1.00;;
78072;SDS011;67281;48.770;11.440;2023-05-10T04:35:15;1.00;;;0.77;;
78072;SDS011;67281;48.770;11.440;2023-05-10T04:37:41;0.83;;;0.83;;
78072;SDS011;67281;48.770;11.440;2023-05-10T04:40:09;2.60;;;0.70;;
78072;SDS011;67281;48.770;11.440;2023-05-10T04:42:36;0.70;;;0.70;;
78072;SDS011;67281;48.770;11.440;2023-05-10T04:45:03;1.07;;;0.80;;
78072;SDS011;67281;48.770;11.440;2023-05-10T04:47:30;0.50;;;0.50;;
78072;SDS011;67281;48.770;11.440;2023-05-10T04:49:57;0.80;;;0.80;;
78072;SDS011;67281;48.770;11.440;2023-05-10T04:52:24;0.70;;;0.70;;
78072;SDS011;67281;48.770;11.440;2023-05-10T04:54:51;0.73;;;0.70;;
78072;SDS011;67281;48.770;11.440;2023-05-10T04:57:17;1.20;;;1.10;;
78072;SDS011;67281;48.770;11.440;2023-05-10T04:59:44;0.60;;;0.60;;
78072;SDS011;67281;48.770;11.440;2023-05-10T05:02:13;0.83;;;0.60;;
78072;SDS011;67281;48.770;11.440;2023-05-10T05:04:39;0.70;;;0.63;;
78072;SDS011;67281;48.770;11.440;2023-05-10T05:07:06;2.83;;;2.70;;
78072;SDS011;67281;48.770;11.440;2023-05-10T05:09:33;1.27;;;0.63;;
78072;SDS011;67281;48.770;11.440;2023-05-10T05:12:00;1.83;;;0.60;;
78072;SDS011;67281;48.770;11.440;2023-05-10T05:14:27;1.23;;;0.70;;
78072;SDS011;67281;48.770;11.440;2023-05-10T05:16:54;0.60;;;0.60;;
78072;SDS011;67281;48.770;11.440;2023-05-10T05:19:22;0.70;;;0.70;;
78072;SDS011;67281;48.770;11.440;2023-05-10T05:21:49;2.37;;;0.60;;
78072;SDS011;67281;48.770;11.440;2023-05-10T05:24:16;0.73;;;0.70;;
78072;SDS011;67281;48.770;11.440;2023-05-10T05:26:42;0.50;;;0.50;;
78072;SDS011;67281;48.770;11.440;2023-05-10T05:29:09;3.20;;;0.77;;
78072;SDS011;67281;48.770;11.440;2023-05-10T05:31:36;1.03;;;0.73;;
78072;SDS011;67281;48.770;11.440;2023-05-10T05:34:03;4.73;;;1.03;;
78072;SDS011;67281;48.770;11.440;2023-05-10T05:36:30;1.20;;;1.00;;
78072;SDS011;67281;48.770;11.440;2023-05-10T05:38:57;0.77;;;0.77;;
78072;SDS011;67281;48.770;11.440;2023-05-10T05:41:24;0.70;;;0.70;;
78072;SDS011;67281;48.770;11.440;2023-05-10T05:43:51;1.40;;;1.27;;
78072;SDS011;67281;48.770;11.440;2023-05-10T05:46:18;0.80;;;0.80;;
78072;SDS011;67281;48.770;11.440;2023-05-10T05:48:44;0.70;;;0.70;;
78072;SDS011;67281;48.770;11.440;2023-05-10T05:51:11;0.80;;;0.80;;
78072;SDS011;67281;48.770;11.440;2023-05-10T05:53:38;1.00;;;1.00;;
78072;SDS011;67281;48.770;11.440;2023-05-10T05:56:05;0.60;;;0.60;;
78072;SDS011;67281;48.770;11.440;2023-05-10T05:58:32;0.97;;;0.97;;
78072;SDS011;67281;48.770;11.440;2023-05-10T06:00:58;2.23;;;1.00;;
78072;SDS011;67281;48.770;11.440;2023-05-10T06:03:25;0.80;;;0.80;;
78072;SDS011;67281;48.770;11.440;2023-05-10T06:05:52;0.70;;;0.70;;
78072;SDS011;67281;48.770;11.440;2023-05-10T06:08:19;2.13;;;1.40;;
78072;SDS011;67281;48.770;11.440;2023-05-10T06:10:46;0.80;;;0.80;;
78072;SDS011;67281;48.770;11.440;2023-05-10T06:13:13;4.37;;;1.07;;
78072;SDS011;67281;48.770;11.440;2023-05-10T06:15:40;1.73;;;1.10;;
78072;SDS011;67281;48.770;11.440;2023-05-10T06:18:07;1.10;;;1.10;;
78072;SDS011;67281;48.770;11.440;2023-05-10T06:20:34;2.17;;;1.00;;
78072;SDS011;67281;48.770;11.440;2023-05-10T06:23:01;1.20;;;1.10;;
78072;SDS011;67281;48.770;11.440;2023-05-10T06:25:28;2.30;;;1.17;;
78072;SDS011;67281;48.770;11.440;2023-05-10T06:27:54;1.10;;;0.90;;
78072;SDS011;67281;48.770;11.440;2023-05-10T06:30:24;1.10;;;0.80;;
78072;SDS011;67281;48.770;11.440;2023-05-10T06:32:55;1.10;;;1.00;;
78072;SDS011;67281;48.770;11.440;2023-05-10T06:35:22;1.10;;;1.10;;
78072;SDS011;67281;48.770;11.440;2023-05-10T06:37:50;1.00;;;1.00;;
78072;SDS011;67281;48.770;11.440;2023-05-10T06:40:17;1.00;;;0.90;;
78072;SDS011;67281;48.770;11.440;2023-05-10T06:42:45;2.20;;;1.00;;
78072;SDS011;67281;48.770;11.440;2023-05-10T06:45:12;1.07;;;1.00;;
78072;SDS011;67281;48.770;11.440;2023-05-10T06:47:41;2.20;;;1.00;;
78072;SDS011;67281;48.770;11.440;2023-05-10T06:50:08;0.97;;;0.97;;
78072;SDS011;67281;48.770;11.440;2023-05-10T06:52:36;1.27;;;1.07;;
78072;SDS011;67281;48.770;11.440;2023-05-10T06:55:03;1.10;;;1.00;;
78072;SDS011;67281;48.770;11.440;2023-05-10T06:57:30;1.20;;;1.10;;
78072;SDS011;67281;48.770;11.440;2023-05-10T06:59:58;1.00;;;0.90;;
78072;SDS011;67281;48.770;11.440;2023-05-10T07:02:25;0.90;;;0.90;;
78072;SDS011;67281;48.770;11.440;2023-05-10T07:04:52;1.07;;;0.97;;
78072;SDS011;67281;48.770;11.440;2023-05-10T07:07:19;1.20;;;1.10;;
78072;SDS011;67281;48.770;11.440;2023-05-10T07:09:46;1.20;;;1.10;;
78072;SDS011;67281;48.770;11.440;2023-05-10T07:12:13;1.27;;;1.17;;
78072;SDS011;67281;48.770;11.440;2023-05-10T07:14:41;1.13;;;1.03;;
78072;SDS011;67281;48.770;11.440;2023-05-10T07:17:08;1.73;;;1.20;;
78072;SDS011;67281;48.770;11.440;2023-05-10T07:19:36;0.80;;;0.80;;
78072;SDS011;67281;48.770;11.440;2023-05-10T07:22:03;5.37;;;1.20;;
78072;SDS011;67281;48.770;11.440;2023-05-10T07:24:30;1.30;;;1.10;;
78072;SDS011;67281;48.770;11.440;2023-05-10T07:26:57;1.80;;;1.10;;
78072;SDS011;67281;48.770;11.440;2023-05-10T07:29:24;1.80;;;1.07;;
78072;SDS011;67281;48.770;11.440;2023-05-10T07:31:51;3.23;;;1.07;;
78072;SDS011;67281;48.770;11.440;2023-05-10T07:34:18;2.70;;;1.30;;
78072;SDS011;67281;48.770;11.440;2023-05-10T07:36:45;3.40;;;0.90;;
78072;SDS011;67281;48.770;11.440;2023-05-10T07:39:12;0.90;;;0.90;;
78072;SDS011;67281;48.770;11.440;2023-05-10T07:41:51;2.03;;;1.10;;
78072;SDS011;67281;48.770;11.440;2023-05-10T07:44:18;4.30;;;1.03;;
78072;SDS011;67281;48.770;11.440;2023-05-10T07:46:46;2.30;;;0.97;;
78072;SDS011;67281;48.770;11.440;2023-05-10T07:49:15;2.20;;;1.30;;
78072;SDS011;67281;48.770;11.440;2023-05-10T07:51:42;2.07;;;1.30;;
78072;SDS011;67281;48.770;11.440;2023-05-10T07:54:09;3.40;;;1.20;;
78072;SDS011;67281;48.770;11.440;2023-05-10T07:56:36;2.20;;;1.10;;
78072;SDS011;67281;48.770;11.440;2023-05-10T07:59:03;3.80;;;1.10;;
78072;SDS011;67281;48.770;11.440;2023-05-10T08:01:33;1.00;;;0.97;;
78072;SDS011;67281;48.770;11.440;2023-05-10T08:04:01;1.33;;;1.00;;
78072;SDS011;67281;48.770;11.440;2023-05-10T08:06:28;1.80;;;1.00;;
78072;SDS011;67281;48.770;11.440;2023-05-10T08:08:56;5.83;;;1.63;;
78072;SDS011;67281;48.770;11.440;2023-05-10T08:11:23;1.80;;;1.10;;
78072;SDS011;67281;48.770;11.440;2023-05-10T08:13:51;1.00;;;1.00;;
78072;SDS011;67281;48.770;11.440;2023-05-10T08:16:18;1.20;;;1.10;;
78072;SDS011;67281;48.770;11.440;2023-05-10T08:18:46;2.57;;;1.27;;
78072;SDS011;67281;48.770;11.440;2023-05-10T08:21:14;2.37;;;1.17;;
78072;SDS011;67281;48.770;11.440;2023-05-10T08:23:41;3.57;;;1.17;;
78072;SDS011;67281;48.770;11.440;2023-05-10T08:26:10;1.23;;;1.13;;
78072;SDS011;67281;48.770;11.440;2023-05-10T08:28:37;1.87;;;0.93;;
78072;SDS011;67281;48.770;11.440;2023-05-10T08:31:04;1.13;;;1.10;;
78072;SDS011;67281;48.770;11.440;2023-05-10T08:33:32;1.37;;;1.03;;
78072;SDS011;67281;48.770;11.440;2023-05-10T08:35:59;3.33;;;1.27;;
78072;SDS011;67281;48.770;11.440;2023-05-10T08:38:25;1.83;;;1.00;;
78072;SDS011;67281;48.770;11.440;2023-05-10T08:40:53;1.40;;;1.00;;
78072;SDS011;67281;48.770;11.440;2023-05-10T08:43:28;1.33;;;1.00;;
78072;SDS011;67281;48.770;11.440;2023-05-10T08:45:56;1.73;;;1.20;;
78072;SDS011;67281;48.770;11.440;2023-05-10T08:48:27;2.13;;;1.00;;
78072;SDS011;67281;48.770;11.440;2023-05-10T08:50:55;3.70;;;1.10;;
78072;SDS011;67281;48.770;11.440;2023-05-10T08:53:26;2.57;;;1.00;;
78072;SDS011;67281;48.770;11.440;2023-05-10T08:55:55;1.30;;;1.20;;
78072;SDS011;67281;48.770;11.440;2023-05-10T08:58:22;1.63;;;1.30;;
78072;SDS011;67281;48.770;11.440;2023-05-10T09:00:49;2.13;;;1.30;;
78072;SDS011;67281;48.770;11.440;2023-05-10T09:03:19;2.60;;;1.07;;
78072;SDS011;67281;48.770;11.440;2023-05-10T09:05:46;1.80;;;1.20;;
78072;SDS011;67281;48.770;11.440;2023-05-10T09:08:13;1.97;;;1.37;;
78072;SDS011;67281;48.770;11.440;2023-05-10T09:10:45;1.50;;;1.40;;
78072;SDS011;67281;48.770;11.440;2023-05-10T09:13:14;2.17;;;1.50;;
78072;SDS011;67281;48.770;11.440;2023-05-10T09:15:44;3.83;;;1.70;;
78072;SDS011;67281;48.770;11.440;2023-05-10T09:18:12;1.97;;;1.20;;
78072;SDS011;67281;48.770;11.440;2023-05-10T09:20:39;1.30;;;1.13;;
78072;SDS011;67281;48.770;11.440;2023-05-10T09:23:06;4.57;;;1.43;;
78072;SDS011;67281;48.770;11.440;2023-05-10T09:25:34;1.10;;;1.00;;
78072;SDS011;67281;48.770;11.440;2023-05-10T09:28:01;0.80;;;0.80;;
78072;SDS011;67281;48.770;11.440;2023-05-10T09:30:29;1.63;;;1.00;;
78072;SDS011;67281;48.770;11.440;2023-05-10T09:32:58;3.07;;;1.27;;
78072;SDS011;67281;48.770;11.440;2023-05-10T09:35:27;1.70;;;0.90;;
78072;SDS011;67281;48.770;11.440;2023-05-10T09:37:56;1.50;;;0.80;;
78072;SDS011;67281;48.770;11.440;2023-05-10T09:40:25;1.07;;;0.97;;
78072;SDS011;67281;48.770;11.440;2023-05-10T09:45:26;1.53;;;1.10;;
78072;SDS011;67281;48.770;11.440;2023-05-10T09:47:55;2.27;;;0.97;;
78072;SDS011;67281;48.770;11.440;2023-05-10T09:50:22;2.70;;;0.90;;
78072;SDS011;67281;48.770;11.440;2023-05-10T09:55:22;1.20;;;1.00;;
78072;SDS011;67281;48.770;11.440;2023-05-10T09:57:59;1.10;;;1.00;;
78072;SDS011;67281;48.770;11.440;2023-05-10T10:00:27;1.93;;;1.30;;
78072;SDS011;67281;48.770;11.440;2023-05-10T10:02:55;1.67;;;1.00;;
78072;SDS011;67281;48.770;11.440;2023-05-10T10:07:56;1.77;;;1.10;;
78072;SDS011;67281;48.770;11.440;2023-05-10T10:10:24;2.50;;;1.27;;
78072;SDS011;67281;48.770;11.440;2023-05-10T10:12:52;2.20;;;1.20;;
78072;SDS011;67281;48.770;11.440;2023-05-10T10:15:20;1.20;;;1.00;;
78072;SDS011;67281;48.770;11.440;2023-05-10T10:17:48;2.60;;;1.30;;
78072;SDS011;67281;48.770;11.440;2023-05-10T10:20:17;0.97;;;0.90;;
78072;SDS011;67281;48.770;11.440;2023-05-10T10:22:46;1.03;;;0.87;;
78072;SDS011;67281;48.770;11.440;2023-05-10T10:25:13;2.80;;;0.90;;
78072;SDS011;67281;48.770;11.440;2023-05-10T10:35:54;1.50;;;1.03;;
78072;SDS011;67281;48.770;11.440;2023-05-10T10:38:24;0.80;;;0.80;;
78072;SDS011;67281;48.770;11.440;2023-05-10T10:47:03;1.97;;;1.00;;
78072;SDS011;67281;48.770;11.440;2023-05-10T10:52:25;1.20;;;1.10;;
78072;SDS011;67281;48.770;11.440;2023-05-10T10:55:13;1.63;;;1.10;;
78072;SDS011;67281;48.770;11.440;2023-05-10T11:02:50;1.20;;;1.10;;
78072;SDS011;67281;48.770;11.440;2023-05-10T11:08:06;2.27;;;1.23;;
78072;SDS011;67281;48.770;11.440;2023-05-10T11:10:35;1.70;;;0.93;;
78072;SDS011;67281;48.770;11.440;2023-05-10T11:13:03;1.33;;;1.10;;
78072;SDS011;67281;48.770;11.440;2023-05-10T11:15:38;1.30;;;0.97;;
78072;SDS011;67281;48.770;11.440;2023-05-10T11:18:16;1.60;;;0.90;;
78072;SDS011;67281;48.770;11.440;2023-05-10T11:20:49;2.83;;;1.13;;
78072;SDS011;67281;48.770;11.440;2023-05-10T11:23:22;1.77;;;1.27;;
78072;SDS011;67281;48.770;11.440;2023-05-10T11:25:50;6.57;;;1.20;;
78072;SDS011;67281;48.770;11.440;2023-05-10T11:28:17;2.67;;;1.57;;
78072;SDS011;67281;48.770;11.440;2023-05-10T11:30:46;2.67;;;1.10;;
78072;SDS011;67281;48.770;11.440;2023-05-10T11:33:17;1.53;;;1.13;;
78072;SDS011;67281;48.770;11.440;2023-05-10T11:35:44;1.60;;;1.10;;
78072;SDS011;67281;48.770;11.440;2023-05-10T11:38:12;1.87;;;1.00;;
78072;SDS011;67281;48.770;11.440;2023-05-10T11:40:39;5.00;;;1.37;;
78072;SDS011;67281;48.770;11.440;2023-05-10T11:43:08;0.90;;;0.90;;
78072;SDS011;67281;48.770;11.440;2023-05-10T11:45:37;2.13;;;1.10;;
78072;SDS011;67281;48.770;11.440;2023-05-10T11:48:04;2.00;;;1.10;;
78072;SDS011;67281;48.770;11.440;2023-05-10T11:50:31;2.13;;;1.10;;
78072;SDS011;67281;48.770;11.440;2023-05-10T11:52:59;3.60;;;1.30;;
78072;SDS011;67281;48.770;11.440;2023-05-10T11:55:25;2.73;;;1.17;;
78072;SDS011;67281;48.770;11.440;2023-05-10T11:57:53;3.97;;;1.40;;
78072;SDS011;67281;48.770;11.440;2023-05-10T12:00:20;5.27;;;1.50;;
78072;SDS011;67281;48.770;11.440;2023-05-10T12:02:48;1.63;;;1.10;;
78072;SDS011;67281;48.770;11.440;2023-05-10T12:05:15;2.37;;;1.43;;
78072;SDS011;67281;48.770;11.440;2023-05-10T12:07:42;3.40;;;1.03;;
78072;SDS011;67281;48.770;11.440;2023-05-10T12:10:10;1.10;;;1.00;;
78072;SDS011;67281;48.770;11.440;2023-05-10T12:12:42;4.97;;;1.40;;
78072;SDS011;67281;48.770;11.440;2023-05-10T12:15:18;3.43;;;1.50;;
78072;SDS011;67281;48.770;11.440;2023-05-10T12:17:47;1.63;;;1.27;;
78072;SDS011;67281;48.770;11.440;2023-05-10T12:20:18;1.47;;;1.37;;
78072;SDS011;67281;48.770;11.440;2023-05-10T12:22:48;1.90;;;1.27;;
78072;SDS011;67281;48.770;11.440;2023-05-10T12:25:18;3.43;;;1.23;;
78072;SDS011;67281;48.770;11.440;2023-05-10T12:27:56;1.13;;;1.03;;
78072;SDS011;67281;48.770;11.440;2023-05-10T12:30:27;2.47;;;1.20;;
78072;SDS011;67281;48.770;11.440;2023-05-10T12:33:06;2.60;;;1.17;;
78072;SDS011;67281;48.770;11.440;2023-05-10T12:35:51;1.20;;;1.10;;
78072;SDS011;67281;48.770;11.440;2023-05-10T12:38:38;1.03;;;1.03;;
78072;SDS011;67281;48.770;11.440;2023-05-10T12:41:06;2.50;;;1.07;;
78072;SDS011;67281;48.770;11.440;2023-05-10T12:43:35;0.70;;;0.70;;
78072;SDS011;67281;48.770;11.440;2023-05-10T12:46:07;2.70;;;0.83;;
78072;SDS011;67281;48.770;11.440;2023-05-10T12:48:35;2.43;;;0.80;;
78072;SDS011;67281;48.770;11.440;2023-05-10T12:51:03;0.80;;;0.80;;
78072;SDS011;67281;48.770;11.440;2023-05-10T12:53:30;1.17;;;0.60;;
78072;SDS011;67281;48.770;11.440;2023-05-10T12:55:58;0.80;;;0.70;;
78072;SDS011;67281;48.770;11.440;2023-05-10T12:58:24;1.00;;;0.87;;
78072;SDS011;67281;48.770;11.440;2023-05-10T13:01:01;0.83;;;0.70;;
78072;SDS011;67281;48.770;11.440;2023-05-10T13:03:28;1.33;;;1.20;;
78072;SDS011;67281;48.770;11.440;2023-05-10T13:05:55;1.63;;;0.90;;
78072;SDS011;67281;48.770;11.440;2023-05-10T13:08:21;1.47;;;1.10;;
78072;SDS011;67281;48.770;11.440;2023-05-10T13:10:48;1.47;;;1.00;;
78072;SDS011;67281;48.770;11.440;2023-05-10T13:13:16;2.23;;;0.97;;
78072;SDS011;67281;48.770;11.440;2023-05-10T13:15:44;1.83;;;1.17;;
78072;SDS011;67281;48.770;11.440;2023-05-10T13:18:10;0.80;;;0.80;;
78072;SDS011;67281;48.770;11.440;2023-05-10T13:20:37;1.23;;;0.80;;
78072;SDS011;67281;48.770;11.440;2023-05-10T13:23:04;1.00;;;0.83;;
78072;SDS011;67281;48.770;11.440;2023-05-10T13:25:31;0.90;;;0.90;;
78072;SDS011;67281;48.770;11.440;2023-05-10T13:27:58;2.00;;;1.10;;
78072;SDS011;67281;48.770;11.440;2023-05-10T13:30:24;1.60;;;1.33;;
78072;SDS011;67281;48.770;11.440;2023-05-10T13:32:51;2.07;;;1.40;;
78072;SDS011;67281;48.770;11.440;2023-05-10T13:35:18;2.30;;;1.60;;
78072;SDS011;67281;48.770;11.440;2023-05-10T13:37:45;2.20;;;1.50;;
78072;SDS011;67281;48.770;11.440;2023-05-10T13:40:12;1.60;;;1.33;;
78072;SDS011;67281;48.770;11.440;2023-05-10T13:42:40;2.63;;;1.60;;
78072;SDS011;67281;48.770;11.440;2023-05-10T13:45:07;2.83;;;1.17;;
78072;SDS011;67281;48.770;11.440;2023-05-10T13:47:34;3.83;;;1.10;;
78072;SDS011;67281;48.770;11.440;2023-05-10T13:50:01;3.77;;;0.90;;
78072;SDS011;67281;48.770;11.440;2023-05-10T13:52:29;1.90;;;0.70;;
78072;SDS011;67281;48.770;11.440;2023-05-10T13:54:56;1.13;;;0.90;;
78072;SDS011;67281;48.770;11.440;2023-05-10T13:57:23;0.93;;;0.80;;
78072;SDS011;67281;48.770;11.440;2023-05-10T13:59:50;0.97;;;0.93;;
78072;SDS011;67281;48.770;11.440;2023-05-10T14:02:17;1.90;;;0.90;;
78072;SDS011;67281;48.770;11.440;2023-05-10T14:04:44;1.80;;;0.80;;
78072;SDS011;67281;48.770;11.440;2023-05-10T14:07:11;0.93;;;0.93;;
78072;SDS011;67281;48.770;11.440;2023-05-10T14:09:38;1.23;;;1.10;;
78072;SDS011;67281;48.770;11.440;2023-05-10T14:12:05;1.70;;;1.33;;
78072;SDS011;67281;48.770;11.440;2023-05-10T14:14:32;1.00;;;1.00;;
78072;SDS011;67281;48.770;11.440;2023-05-10T14:16:58;1.63;;;1.10;;
78072;SDS011;67281;48.770;11.440;2023-05-10T14:19:25;1.00;;;0.93;;
78072;SDS011;67281;48.770;11.440;2023-05-10T14:21:53;1.33;;;1.20;;
78072;SDS011;67281;48.770;11.440;2023-05-10T14:24:20;2.07;;;1.00;;
78072;SDS011;67281;48.770;11.440;2023-05-10T14:26:47;3.77;;;1.50;;
78072;SDS011;67281;48.770;11.440;2023-05-10T14:29:13;5.77;;;1.50;;
78072;SDS011;67281;48.770;11.440;2023-05-10T14:31:40;2.63;;;1.30;;
78072;SDS011;67281;48.770;11.440;2023-05-10T14:34:07;2.53;;;1.20;;
78072;SDS011;67281;48.770;11.440;2023-05-10T14:36:34;3.00;;;1.57;;
78072;SDS011;67281;48.770;11.440;2023-05-10T14:39:01;3.73;;;1.50;;
78072;SDS011;67281;48.770;11.440;2023-05-10T14:41:27;1.70;;;1.10;;
78072;SDS011;67281;48.770;11.440;2023-05-10T14:43:54;2.10;;;1.20;;
78072;SDS011;67281;48.770;11.440;2023-05-10T14:46:21;1.60;;;1.10;;
78072;SDS011;67281;48.770;11.440;2023-05-10T14:48:48;3.67;;;1.40;;
78072;SDS011;67281;48.770;11.440;2023-05-10T14:51:15;1.93;;;1.30;;
78072;SDS011;67281;48.770;11.440;2023-05-10T14:53:42;2.70;;;1.20;;
78072;SDS011;67281;48.770;11.440;2023-05-10T14:56:09;3.37;;;1.37;;
78072;SDS011;67281;48.770;11.440;2023-05-10T14:58:36;2.13;;;1.20;;
78072;SDS011;67281;48.770;11.440;2023-05-10T15:01:02;2.57;;;1.13;;
78072;SDS011;67281;48.770;11.440;2023-05-10T15:03:30;1.50;;;1.10;;
78072;SDS011;67281;48.770;11.440;2023-05-10T15:05:57;1.47;;;1.10;;
78072;SDS011;67281;48.770;11.440;2023-05-10T15:08:24;4.70;;;1.10;;
78072;SDS011;67281;48.770;11.440;2023-05-10T15:10:51;1.40;;;1.20;;
78072;SDS011;67281;48.770;11.440;2023-05-10T15:13:18;2.47;;;1.20;;
78072;SDS011;67281;48.770;11.440;2023-05-10T15:15:45;1.90;;;1.00;;
78072;SDS011;67281;48.770;11.440;2023-05-10T15:18:12;1.50;;;1.30;;
78072;SDS011;67281;48.770;11.440;2023-05-10T15:20:38;1.63;;;1.10;;
78072;SDS011;67281;48.770;11.440;2023-05-10T15:23:05;2.90;;;1.17;;